Time;durP1;ratioP1;P1;durP2;ratioP2;P2;SDS_P1;SDS_P2;PMS_P1;PMS_P2;Temp;Humidity;BMP_temperature;BMP_pressure;BME280_temperature;BME280_humidity;BME280_pressure;Samples;Min_cycle;Max_cycle;Signal;HPM_P1;HPM_P2
2022/02/15 00:01:07;;;;;;;;;;;;;;;7.47;58.32;99808.98;1757528;80;22309;-76
2022/02/15 00:03:32;;;;;;;;;;;;;;;7.49;58.11;99809.65;1758722;80;20149;-77
2022/02/15 00:05:58;;;;;;;;;;;;;;;7.47;58.05;99805.03;1758419;79;20157;-76
2022/02/15 00:08:25;;;;;;;;;;;;;;;7.31;58.50;99807.44;1776227;79;20160;-78
2022/02/15 00:10:51;;;;;;;;;;;;;;;7.32;58.38;99805.16;1766506;80;20236;-76
2022/02/15 00:13:17;;;;;;;;;;;;;;;7.37;58.11;99805.55;1756111;81;21028;-76
2022/02/15 00:15:43;;;;;;;;;;;;;;;7.25;58.43;99801.44;1715218;81;20163;-76
2022/02/15 00:18:08;;;;;;;;;;;;;;;7.42;58.04;99799.36;1750633;81;20124;-76
2022/02/15 00:20:34;;;;;;;;;;;;;;;7.38;58.03;99805.89;1750003;80;20613;-76
2022/02/15 00:22:59;;;;;;;;;;;;;;;7.16;58.52;99796.08;1749736;80;20171;-76
2022/02/15 00:25:25;;;;;;;;;;;;;;;7.11;58.71;99802.23;1746566;80;20980;-75
2022/02/15 00:27:50;;;;;;;;;;;;;;;7.16;58.51;99796.08;1755454;80;20162;-76
2022/02/15 00:30:16;;;;;;;;;;;;;;;7.11;58.63;99791.72;1750909;81;20237;-75
2022/02/15 00:32:42;;;;;;;;;;;;;;;7.03;58.98;99787.67;1745246;81;20497;-78
2022/02/15 00:35:08;;;;;;;;;;;;;;;6.99;59.09;99789.77;1754167;81;20156;-75
2022/02/15 00:37:33;;;;;;;;;;;;;;;7.05;58.91;99779.16;1751123;81;21138;-75
2022/02/15 00:39:59;;;;;;;;;;;;;;;6.97;58.99;99771.18;1750850;81;20146;-76
2022/02/15 00:42:25;;;;;;;;;;;;;;;7.00;59.07;99781.39;1746235;81;20713;-75
2022/02/15 00:44:50;;;;;;;;;;;;;;;6.97;59.29;99786.93;1747286;80;20130;-77
2022/02/15 00:47:16;;;;;;;;;;;;;;;7.01;59.07;99787.00;1746889;81;20184;-75
2022/02/15 00:49:42;;;;;;;;;;;;;;;6.89;59.49;99780.26;1750487;81;21106;-76
2022/02/15 00:52:07;;;;;;;;;;;;;;;6.92;59.40;99782.60;1745052;80;20177;-76
2022/02/15 00:54:33;;;;;;;;;;;;;;;6.94;59.26;99779.34;1756071;81;20204;-76
2022/02/15 00:56:59;;;;;;;;;;;;;;;6.98;59.43;99783.34;1744830;80;20135;-75
2022/02/15 00:59:24;;;;;;;;;;;;;;;6.90;59.53;99780.12;1749479;80;20150;-75
2022/02/15 01:01:50;;;;;;;;;;;;;;;6.83;59.87;99769.33;1747141;81;22420;-77
2022/02/15 01:04:15;;;;;;;;;;;;;;;6.89;59.84;99773.70;1756336;81;20138;-75
2022/02/15 01:06:41;;;;;;;;;;;;;;;6.80;60.04;99773.55;1749347;81;20195;-73
2022/02/15 01:09:07;;;;;;;;;;;;;;;6.75;60.23;99769.72;1752554;81;20125;-74
2022/02/15 01:11:32;;;;;;;;;;;;;;;6.74;60.16;99759.72;1752364;80;20269;-77
2022/02/15 01:14:00;;;;;;;;;;;;;;;6.64;60.87;99764.14;1751345;81;21328;-75
2022/02/15 01:16:25;;;;;;;;;;;;;;;6.72;60.82;99763.44;1752133;80;20173;-74
2022/02/15 01:18:52;;;;;;;;;;;;;;;6.67;61.05;99760.41;1746480;81;20164;-73
2022/02/15 01:21:18;;;;;;;;;;;;;;;6.56;61.24;99750.91;1750938;81;20184;-74
2022/02/15 01:23:43;;;;;;;;;;;;;;;6.54;61.36;99751.50;1745522;81;20205;-73
2022/02/15 01:26:09;;;;;;;;;;;;;;;6.61;61.40;99744.74;1745533;81;21022;-74
2022/02/15 01:28:35;;;;;;;;;;;;;;;6.60;61.50;99747.02;1747715;81;20509;-74
2022/02/15 01:31:02;;;;;;;;;;;;;;;6.65;61.41;99742.19;1756577;81;20721;-74
2022/02/15 01:33:28;;;;;;;;;;;;;;;6.65;61.29;99747.44;1744214;81;20127;-73
2022/02/15 01:35:53;;;;;;;;;;;;;;;6.53;61.86;99742.81;1745894;80;20185;-74
2022/02/15 01:38:19;;;;;;;;;;;;;;;6.59;61.51;99737.50;1747806;81;21158;-76
2022/02/15 01:40:45;;;;;;;;;;;;;;;6.60;61.57;99739.14;1749761;81;20471;-74
2022/02/15 01:43:10;;;;;;;;;;;;;;;6.66;61.30;99735.95;1744822;80;20367;-75
2022/02/15 01:45:36;;;;;;;;;;;;;;;6.73;61.08;99735.74;1749005;80;20181;-74
2022/02/15 01:48:01;;;;;;;;;;;;;;;6.65;61.14;99739.08;1776695;79;20221;-73
2022/02/15 01:50:27;;;;;;;;;;;;;;;6.71;60.91;99737.69;1730733;82;21103;-73
2022/02/15 01:52:53;;;;;;;;;;;;;;;6.58;61.33;99739.77;1750290;80;20148;-78
2022/02/15 01:55:18;;;;;;;;;;;;;;;6.43;61.84;99732.34;1752204;81;20654;-77
2022/02/15 01:57:44;;;;;;;;;;;;;;;6.38;62.09;99725.36;1751204;80;20673;-76
2022/02/15 02:00:13;;;;;;;;;;;;;;;6.63;61.53;99723.12;1753203;80;20137;-73
2022/02/15 02:02:40;;;;;;;;;;;;;;;6.43;61.95;99727.09;1752215;80;21333;-76
2022/02/15 02:07:50;;;;;;;;;;;;;;;6.55;61.62;99728.25;1754715;81;20257;-76
2022/02/15 02:10:16;;;;;;;;;;;;;;;6.48;61.91;99714.88;1749494;79;20514;-74
2022/02/15 02:12:42;;;;;;;;;;;;;;;6.52;61.74;99721.48;1754259;81;20120;-73
2022/02/15 02:15:09;;;;;;;;;;;;;;;6.24;62.58;99709.56;1750329;81;21169;-73
2022/02/15 02:17:35;;;;;;;;;;;;;;;6.35;62.47;99708.59;1750728;80;20171;-75
2022/02/15 02:20:00;;;;;;;;;;;;;;;6.55;62.05;99695.46;1755191;80;20155;-74
2022/02/15 02:22:27;;;;;;;;;;;;;;;6.47;61.93;99710.59;1759142;80;20092;-75
2022/02/15 02:24:53;;;;;;;;;;;;;;;6.42;62.19;99703.14;1763310;80;20128;-75
2022/02/15 02:27:26;;;;;;;;;;;;;;;6.38;62.50;99708.80;1752984;80;21144;-77
2022/02/15 02:29:53;;;;;;;;;;;;;;;6.35;62.56;99704.66;1759977;80;20152;-74
2022/02/15 02:32:22;;;;;;;;;;;;;;;6.39;62.46;99708.67;1754348;80;20197;-73
2022/02/15 02:34:55;;;;;;;;;;;;;;;6.29;62.93;99708.69;1747096;80;20171;-75
2022/02/15 02:37:20;;;;;;;;;;;;;;;6.35;62.79;99704.66;1759748;80;20133;-73
2022/02/15 02:39:47;;;;;;;;;;;;;;;6.27;63.03;99703.22;1752741;80;21145;-73
2022/02/15 02:42:13;;;;;;;;;;;;;;;6.29;63.01;99703.91;1756951;80;20172;-74
2022/02/15 02:44:41;;;;;;;;;;;;;;;6.35;62.96;99712.52;1759880;80;20702;-74
2022/02/15 02:47:06;;;;;;;;;;;;;;;6.26;63.25;99705.49;1751354;80;20136;-75
2022/02/15 02:49:33;;;;;;;;;;;;;;;6.23;63.47;99709.70;1733103;80;20262;-74
2022/02/15 02:51:58;;;;;;;;;;;;;;;6.09;64.28;99707.86;1760787;80;21154;-74
2022/02/15 02:54:24;;;;;;;;;;;;;;;6.15;64.39;99708.27;1756961;80;20434;-75
2022/02/15 02:56:51;;;;;;;;;;;;;;;6.03;64.93;99711.03;1761271;80;20153;-74
2022/02/15 02:59:16;;;;;;;;;;;;;;;6.12;64.70;99708.05;1751812;80;20154;-74
2022/02/15 03:01:42;;;;;;;;;;;;;;;6.03;64.96;99712.34;1756480;80;20211;-74
2022/02/15 03:04:07;;;;;;;;;;;;;;;6.01;65.19;99712.98;1758891;80;21040;-74
2022/02/15 03:06:33;;;;;;;;;;;;;;;6.04;65.00;99706.12;1755233;80;20770;-74
2022/02/15 03:08:59;;;;;;;;;;;;;;;6.10;64.99;99704.75;1740986;81;20318;-74
2022/02/15 03:11:24;;;;;;;;;;;;;;;6.07;65.09;99704.53;1736309;81;21081;-74
2022/02/15 03:13:52;;;;;;;;;;;;;;;6.05;65.26;99694.67;1737116;81;20200;-74
2022/02/15 03:16:17;;;;;;;;;;;;;;;6.13;65.15;99702.34;1739628;82;22821;-74
2022/02/15 03:18:43;;;;;;;;;;;;;;;6.06;65.26;99700.28;1718105;82;20140;-73
2022/02/15 03:21:09;;;;;;;;;;;;;;;6.22;64.78;99700.20;1758214;81;21141;-76
2022/02/15 03:23:34;;;;;;;;;;;;;;;6.17;64.90;99697.15;1760229;81;20624;-74
2022/02/15 03:26:00;;;;;;;;;;;;;;;6.14;64.94;99704.83;1734057;81;20171;-76
2022/02/15 03:28:27;;;;;;;;;;;;;;;6.27;64.49;99705.35;1758345;80;21075;-74
2022/02/15 03:30:52;;;;;;;;;;;;;;;6.21;64.73;99697.23;1740339;80;20229;-77
2022/02/15 03:33:18;;;;;;;;;;;;;;;6.17;64.79;99699.31;1757995;80;20451;-74
2022/02/15 03:35:43;;;;;;;;;;;;;;;6.15;64.84;99699.09;1757443;80;20503;-74
2022/02/15 03:38:09;;;;;;;;;;;;;;;6.14;65.11;99702.67;1723519;81;20132;-75
2022/02/15 03:43:18;;;;;;;;;;;;;;;6.21;64.93;99700.66;1738431;80;20716;-74
2022/02/15 03:45:48;;;;;;;;;;;;;;;6.22;64.83;99704.14;1726302;81;20162;-75
2022/02/15 03:48:15;;;;;;;;;;;;;;;6.17;65.04;99695.84;1739740;81;20630;-74
2022/02/15 03:50:41;;;;;;;;;;;;;;;6.19;64.98;99701.80;1720273;82;20260;-75
2022/02/15 03:53:06;;;;;;;;;;;;;;;6.21;64.95;99705.09;1720495;80;21866;-74
2022/02/15 03:55:32;;;;;;;;;;;;;;;6.19;64.97;99696.55;1759995;80;20210;-74
2022/02/15 03:57:58;;;;;;;;;;;;;;;6.21;64.94;99711.64;1756710;80;20194;-73
2022/02/15 04:00:23;;;;;;;;;;;;;;;6.29;64.68;99699.97;1759041;80;20487;-74
2022/02/15 04:02:49;;;;;;;;;;;;;;;6.10;65.24;99708.69;1758117;80;20156;-78
2022/02/15 04:05:14;;;;;;;;;;;;;;;6.17;65.04;99705.86;1720646;81;21011;-74
2022/02/15 04:07:40;;;;;;;;;;;;;;;6.28;64.62;99699.65;1759972;80;20297;-75
2022/02/15 04:10:07;;;;;;;;;;;;;;;6.27;64.43;99697.98;1770301;79;20119;-76
2022/02/15 04:12:33;;;;;;;;;;;;;;;6.12;65.01;99697.56;1760387;80;20734;-74
2022/02/15 04:14:58;;;;;;;;;;;;;;;6.11;65.20;99704.61;1761106;79;20227;-74
2022/02/15 04:17:24;;;;;;;;;;;;;;;6.11;65.13;99695.44;1762718;79;21146;-75
2022/02/15 04:19:49;;;;;;;;;;;;;;;6.11;65.13;99690.20;1766621;80;20201;-75
2022/02/15 04:22:15;;;;;;;;;;;;;;;6.05;65.37;99686.81;1760769;80;20773;-74
2022/02/15 04:24:40;;;;;;;;;;;;;;;5.97;65.68;99693.23;1760951;80;20179;-74
2022/02/15 04:27:06;;;;;;;;;;;;;;;6.04;65.46;99689.08;1768438;80;20504;-75
2022/02/15 04:29:32;;;;;;;;;;;;;;;6.00;65.56;99694.77;1763711;80;21167;-74
2022/02/15 04:31:58;;;;;;;;;;;;;;;5.97;65.73;99697.17;1760712;80;20355;-74
2022/02/15 04:34:23;;;;;;;;;;;;;;;5.82;66.40;99694.58;1764950;80;20175;-75
2022/02/15 04:36:49;;;;;;;;;;;;;;;5.73;66.84;99700.99;1753380;79;20145;-76
2022/02/15 04:39:14;;;;;;;;;;;;;;;5.81;66.84;99695.53;1762365;80;20187;-75
2022/02/15 04:41:40;;;;;;;;;;;;;;;5.74;66.80;99700.50;1764565;80;21163;-75
2022/02/15 04:44:06;;;;;;;;;;;;;;;5.79;66.78;99692.23;1768344;80;20198;-74
2022/02/15 04:46:32;;;;;;;;;;;;;;;5.83;66.84;99705.41;1763127;80;20133;-75
2022/02/15 04:48:58;;;;;;;;;;;;;;;5.79;66.87;99702.70;1755963;80;20506;-74
2022/02/15 04:51:24;;;;;;;;;;;;;;;5.90;66.63;99697.33;1755687;79;20185;-76
2022/02/15 04:53:49;;;;;;;;;;;;;;;5.88;66.62;99695.34;1758153;80;21088;-76
2022/02/15 04:56:15;;;;;;;;;;;;;;;5.98;66.32;99704.08;1753048;80;20180;-76
2022/02/15 04:58:40;;;;;;;;;;;;;;;5.84;66.76;99701.81;1759858;80;21206;-76
2022/02/15 05:01:06;;;;;;;;;;;;;;;5.78;66.84;99695.34;1757325;79;20173;-75
2022/02/15 05:03:33;;;;;;;;;;;;;;;5.83;66.39;99687.89;1766032;80;20128;-75
2022/02/15 05:05:59;;;;;;;;;;;;;;;6.02;65.98;99697.58;1759070;80;21170;-74
2022/02/15 05:08:24;;;;;;;;;;;;;;;6.06;65.78;99700.28;1761941;80;21235;-74
2022/02/15 05:10:50;;;;;;;;;;;;;;;6.04;65.76;99693.50;1759916;79;20222;-74
2022/02/15 05:13:15;;;;;;;;;;;;;;;6.08;65.56;99698.33;1758636;79;20132;-74
2022/02/15 05:15:41;;;;;;;;;;;;;;;6.09;65.36;99697.38;1781318;80;20107;-73
2022/02/15 05:18:07;;;;;;;;;;;;;;;5.89;65.90;99689.96;1763195;79;21788;-76
2022/02/15 05:20:33;;;;;;;;;;;;;;;6.08;65.50;99702.27;1763196;80;20177;-74
2022/02/15 05:22:58;;;;;;;;;;;;;;;6.07;65.33;99701.91;1759431;80;20188;-74
2022/02/15 05:25:24;;;;;;;;;;;;;;;6.05;65.49;99701.23;1763416;80;20435;-76
2022/02/15 05:27:52;;;;;;;;;;;;;;;6.09;65.22;99694.76;1764205;80;20180;-73
2022/02/15 05:30:17;;;;;;;;;;;;;;;5.92;65.70;99696.73;1759056;79;21637;-73
2022/02/15 05:32:43;;;;;;;;;;;;;;;5.88;65.78;99692.72;1762313;80;20133;-75
2022/02/15 05:35:09;;;;;;;;;;;;;;;5.90;65.80;99692.09;1751543;79;20178;-74
2022/02/15 05:37:34;;;;;;;;;;;;;;;5.98;65.38;99688.35;1757037;80;20255;-73
2022/02/15 05:40:01;;;;;;;;;;;;;;;5.88;65.78;99683.55;1757494;79;20606;-74
2022/02/15 05:42:26;;;;;;;;;;;;;;;5.81;65.93;99686.36;1760341;79;22527;-73
2022/02/15 05:44:52;;;;;;;;;;;;;;;5.78;65.98;99683.55;1763813;80;20170;-74
2022/02/15 05:47:17;;;;;;;;;;;;;;;5.79;65.95;99697.47;1757956;80;20167;-73
2022/02/15 05:52:27;;;;;;;;;;;;;;;5.93;65.76;99692.66;1758515;79;21017;-74
2022/02/15 05:54:54;;;;;;;;;;;;;;;5.94;65.62;99696.10;1760800;79;21130;-74
2022/02/15 05:57:21;;;;;;;;;;;;;;;5.84;65.90;99696.56;1758654;80;20133;-76
2022/02/15 05:59:47;;;;;;;;;;;;;;;5.79;65.84;99694.36;1757165;80;20135;-76
2022/02/15 06:02:12;;;;;;;;;;;;;;;5.80;65.91;99703.06;1758489;79;20489;-74
2022/02/15 06:04:38;;;;;;;;;;;;;;;5.81;65.85;99696.37;1757734;80;20178;-74
2022/02/15 06:07:05;;;;;;;;;;;;;;;5.81;65.86;99704.23;1763983;80;21033;-74
2022/02/15 06:09:31;;;;;;;;;;;;;;;5.70;66.10;99707.81;1757312;80;20108;-74
2022/02/15 06:11:58;;;;;;;;;;;;;;;5.71;66.16;99709.94;1754529;79;20485;-76
2022/02/15 06:14:26;;;;;;;;;;;;;;;5.61;66.46;99710.39;1763239;79;20184;-75
2022/02/15 06:16:52;;;;;;;;;;;;;;;5.59;66.71;99709.22;1763239;80;20410;-77
2022/02/15 06:19:18;;;;;;;;;;;;;;;5.69;66.29;99710.08;1759520;80;21889;-77
2022/02/15 06:21:44;;;;;;;;;;;;;;;5.75;66.31;99702.16;1769280;80;20550;-76
2022/02/15 06:24:09;;;;;;;;;;;;;;;5.78;66.50;99704.52;1764754;79;20134;-73
2022/02/15 06:26:35;;;;;;;;;;;;;;;5.57;67.14;99709.35;1759904;79;20129;-73
2022/02/15 06:29:01;;;;;;;;;;;;;;;5.62;67.03;99708.12;1758176;79;20165;-74
2022/02/15 06:31:27;;;;;;;;;;;;;;;5.47;67.39;99711.59;1758275;80;21154;-73
2022/02/15 06:33:52;;;;;;;;;;;;;;;5.29;68.29;99714.86;1759388;80;20747;-75
2022/02/15 06:36:18;;;;;;;;;;;;;;;5.29;68.57;99716.17;1758351;80;20187;-73
2022/02/15 06:38:43;;;;;;;;;;;;;;;5.36;68.56;99716.00;1759596;80;20129;-74
2022/02/15 06:41:09;;;;;;;;;;;;;;;5.37;68.35;99712.40;1752481;80;20924;-74
2022/02/15 06:43:35;;;;;;;;;;;;;;;5.43;68.40;99708.92;1753922;79;21348;-74
2022/02/15 06:46:01;;;;;;;;;;;;;;;5.49;68.14;99716.24;1757157;80;20170;-76
2022/02/15 06:48:27;;;;;;;;;;;;;;;5.64;67.68;99716.21;1753349;80;20165;-75
2022/02/15 06:50:52;;;;;;;;;;;;;;;5.64;67.54;99716.21;1759033;80;20167;-75
2022/02/15 06:53:18;;;;;;;;;;;;;;;5.72;67.41;99712.42;1755775;79;20187;-74
2022/02/15 06:55:44;;;;;;;;;;;;;;;5.70;67.28;99719.60;1760228;79;20638;-75
2022/02/15 06:58:09;;;;;;;;;;;;;;;5.72;67.26;99713.73;1768065;79;20466;-75
2022/02/15 07:00:35;;;;;;;;;;;;;;;5.81;66.96;99711.25;1758627;80;20215;-75
2022/02/15 07:03:01;;;;;;;;;;;;;;;5.75;67.08;99713.46;1764032;79;20151;-75
2022/02/15 07:05:27;;;;;;;;;;;;;;;5.82;66.93;99712.92;1767373;80;20169;-75
2022/02/15 07:07:52;;;;;;;;;;;;;;;5.80;66.99;99701.76;1766213;80;20580;-76
2022/02/15 07:10:18;;;;;;;;;;;;;;;5.84;66.89;99713.59;1765411;79;20206;-75
2022/02/15 07:12:44;;;;;;;;;;;;;;;5.82;67.02;99711.61;1766465;79;20155;-76
2022/02/15 07:15:09;;;;;;;;;;;;;;;5.91;66.80;99709.48;1756195;79;20182;-75
2022/02/15 07:17:37;;;;;;;;;;;;;;;5.89;66.81;99709.62;1766768;79;20263;-79
2022/02/15 07:20:04;;;;;;;;;;;;;;;6.05;66.52;99706.97;1765044;80;21150;-77
2022/02/15 07:22:30;;;;;;;;;;;;;;;6.02;66.48;99706.75;1758752;79;20217;-78
2022/02/15 07:24:55;;;;;;;;;;;;;;;6.14;66.23;99702.67;1760702;80;20502;-78
2022/02/15 07:27:22;;;;;;;;;;;;;;;6.09;66.33;99705.24;1768612;80;20476;-77
2022/02/15 07:29:48;;;;;;;;;;;;;;;6.13;66.23;99715.45;1765624;79;20181;-77
2022/02/15 07:32:18;;;;;;;;;;;;;;;6.10;66.23;99713.44;1769402;80;21087;-78
2022/02/15 07:34:42;;;;;;;;;;;;;;;5.98;66.52;99711.94;1764002;80;20459;-78
2022/02/15 07:37:11;;;;;;;;;;;;;;;6.09;66.48;99710.48;1774119;80;20125;-79
2022/02/15 07:39:37;;;;;;;;;;;;;;;6.18;66.27;99721.10;1775569;79;20433;-80
2022/02/15 07:42:15;;;;;;;;;;;;;;;6.18;66.15;99713.23;1771841;80;20474;-81
2022/02/15 07:44:41;;;;;;;;;;;;;;;6.24;66.19;99716.12;1761734;79;21949;-80
2022/02/15 07:47:06;;;;;;;;;;;;;;;6.35;65.98;99719.08;1772424;80;20266;-80
2022/02/15 07:49:32;;;;;;;;;;;;;;;6.42;65.79;99712.32;1770179;80;20278;-81
2022/02/15 07:51:59;;;;;;;;;;;;;;;6.39;65.82;99716.53;1775897;80;20157;-80
2022/02/15 07:54:24;;;;;;;;;;;;;;;6.51;65.81;99714.59;1775230;80;20955;-81
2022/02/15 07:56:50;;;;;;;;;;;;;;;6.46;65.71;99713.70;1769581;80;21087;-81
2022/02/15 07:59:15;;;;;;;;;;;;;;;6.55;65.53;99717.27;1766419;80;20153;-81
2022/02/15 08:01:41;;;;;;;;;;;;;;;6.54;65.69;99713.47;1768502;80;20161;-82
2022/02/15 08:04:08;;;;;;;;;;;;;;;6.49;65.72;99719.13;1771899;80;20166;-80
2022/02/15 08:06:36;;;;;;;;;;;;;;;6.59;65.68;99720.45;1768046;80;20135;-80
2022/02/15 08:09:01;;;;;;;;;;;;;;;6.64;65.70;99715.60;1758973;79;20495;-81
2022/02/15 08:11:27;;;;;;;;;;;;;;;6.70;65.64;99716.34;1755194;80;20826;-80
2022/02/15 08:13:54;;;;;;;;;;;;;;;6.71;65.68;99720.64;1756612;80;20098;-81
2022/02/15 08:16:19;;;;;;;;;;;;;;;6.81;65.38;99712.73;1732622;80;20492;-82
2022/02/15 08:18:45;;;;;;;;;;;;;;;6.82;65.47;99721.77;1712599;80;20153;-79
2022/02/15 08:21:10;;;;;;;;;;;;;;;6.85;65.56;99715.88;1758138;80;21876;-79
2022/02/15 08:23:37;;;;;;;;;;;;;;;6.92;65.05;99714.36;1760563;80;20125;-79
2022/02/15 08:26:06;;;;;;;;;;;;;;;6.96;64.84;99715.70;1762753;80;20168;-80
2022/02/15 08:28:33;;;;;;;;;;;;;;;7.08;64.87;99722.43;1759410;80;20519;-82
2022/02/15 08:30:59;;;;;;;;;;;;;;;7.06;64.79;99723.06;1757551;80;20247;-81
2022/02/15 08:33:27;;;;;;;;;;;;;;;7.12;64.78;99717.73;1768185;80;21152;-81
2022/02/15 08:35:53;;;;;;;;;;;;;;;7.24;64.48;99723.61;1757030;80;20262;-80
2022/02/15 08:38:18;;;;;;;;;;;;;;;7.45;64.00;99724.70;1758247;79;20264;-80
2022/02/15 08:40:45;;;;;;;;;;;;;;;7.57;63.68;99730.09;1765099;79;20139;-81
2022/02/15 08:43:11;;;;;;;;;;;;;;;7.58;63.59;99720.41;1767004;79;20190;-82
2022/02/15 08:45:36;;;;;;;;;;;;;;;7.62;63.54;99716.52;1756990;80;21184;-78
2022/02/15 08:48:02;;;;;;;;;;;;;;;7.63;63.18;99716.37;1757508;79;20197;-78
2022/02/15 08:50:28;;;;;;;;;;;;;;;7.84;63.26;99721.33;1755634;80;20221;-79
2022/02/15 08:52:54;;;;;;;;;;;;;;;7.80;63.18;99727.03;1759981;80;20169;-81
2022/02/15 08:55:20;;;;;;;;;;;;;;;7.44;63.61;99724.34;1760432;79;20137;-80
2022/02/15 08:57:46;;;;;;;;;;;;;;;7.76;63.56;99713.38;1769508;80;22244;-80
2022/02/15 09:00:14;;;;;;;;;;;;;;;7.76;63.41;99714.69;1759908;80;20202;-80
2022/02/15 09:02:40;;;;;;;;;;;;;;;7.91;63.17;99714.52;1763743;80;20137;-81
2022/02/15 09:05:06;;;;;;;;;;;;;;;8.02;62.93;99710.84;1754240;80;21218;-80
2022/02/15 09:07:31;;;;;;;;;;;;;;;8.19;62.62;99707.05;1761634;80;20117;-80
2022/02/15 09:09:57;;;;;;;;;;;;;;;8.31;62.41;99708.93;1751180;80;21155;-80
2022/02/15 09:12:23;;;;;;;;;;;;;;;8.50;62.21;99707.95;1765363;80;20231;-81
2022/02/15 09:14:54;;;;;;;;;;;;;;;8.66;61.71;99705.94;1765318;80;20250;-80
2022/02/15 09:17:19;;;;;;;;;;;;;;;8.75;61.33;99714.22;1757033;80;20158;-79
2022/02/15 09:19:45;;;;;;;;;;;;;;;8.81;61.64;99716.23;1760501;80;20520;-81
2022/02/15 09:22:11;;;;;;;;;;;;;;;8.94;61.23;99713.17;1762880;80;22381;-81
2022/02/15 09:24:38;;;;;;;;;;;;;;;9.06;60.71;99721.61;1758395;80;20164;-81
2022/02/15 09:27:05;;;;;;;;;;;;;;;9.06;60.58;99721.61;1762945;80;20168;-80
2022/02/15 09:29:32;;;;;;;;;;;;;;;9.21;60.64;99729.27;1749320;80;20500;-80
2022/02/15 09:31:59;;;;;;;;;;;;;;;9.09;60.02;99737.95;1754812;80;20321;-80
2022/02/15 09:34:27;;;;;;;;;;;;;;;9.05;60.34;99735.78;1756595;80;21259;-81
2022/02/15 09:36:53;;;;;;;;;;;;;;;8.85;60.20;99741.75;1753088;80;20249;-79
2022/02/15 09:39:19;;;;;;;;;;;;;;;9.18;60.21;99744.06;1755370;80;20338;-80
2022/02/15 09:41:45;;;;;;;;;;;;;;;9.23;60.11;99741.80;1750706;80;20612;-79
2022/02/15 09:44:11;;;;;;;;;;;;;;;9.17;59.82;99745.06;1760822;80;20168;-79
2022/02/15 09:46:37;;;;;;;;;;;;;;;9.22;59.78;99734.87;1775797;80;21170;-80
2022/02/15 09:49:48;;;;;;;;;;;;;;;9.40;60.16;99739.22;1756303;80;20170;-80
2022/02/15 09:51:34;;;;;;;;;;;;;;;9.60;59.56;99739.33;1760211;80;20119;-79
2022/02/15 09:54:00;;;;;;;;;;;;;;;9.81;59.19;99726.19;1757743;80;20253;-79
2022/02/15 09:56:26;;;;;;;;;;;;;;;9.23;59.75;99730.42;1752645;80;20154;-79
2022/02/15 09:58:51;;;;;;;;;;;;;;;9.17;60.07;99733.22;1762201;80;21085;-79
2022/02/15 10:01:17;;;;;;;;;;;;;;;9.34;60.32;99725.70;1758202;80;20460;-79
2022/02/15 10:03:49;;;;;;;;;;;;;;;9.74;59.73;99710.20;1768501;80;20166;-79
2022/02/15 10:06:15;;;;;;;;;;;;;;;9.77;59.27;99712.98;1761216;80;20142;-80
2022/02/15 10:08:40;;;;;;;;;;;;;;;9.49;59.99;99715.87;1750816;80;20133;-80
2022/02/15 10:11:11;;;;;;;;;;;;;;;9.72;59.49;99711.33;1755905;80;21240;-80
2022/02/15 10:13:45;;;;;;;;;;;;;;;9.81;59.45;99711.69;1767628;79;20149;-81
2022/02/15 10:16:11;;;;;;;;;;;;;;;10.04;59.09;99717.16;1764773;80;20164;-80
2022/02/15 10:18:37;;;;;;;;;;;;;;;9.99;58.98;99718.97;1764108;80;20533;-80
2022/02/15 10:21:03;;;;;;;;;;;;;;;10.22;58.51;99719.16;1760737;80;20170;-79
2022/02/15 10:23:30;;;;;;;;;;;;;;;10.22;58.12;99716.52;1771014;80;21077;-79
2022/02/15 10:25:56;;;;;;;;;;;;;;;10.16;58.09;99718.97;1755477;79;20225;-80
2022/02/15 10:28:23;;;;;;;;;;;;;;;10.15;58.38;99730.02;1764934;80;20448;-79
2022/02/15 10:30:56;;;;;;;;;;;;;;;10.13;58.32;99735.13;1721559;80;39267;-80
2022/02/15 10:33:30;;;;;;;;;;;;;;;10.04;58.75;99731.67;1756098;80;20181;-80
2022/02/15 10:36:00;;;;;;;;;;;;;;;10.11;58.46;99730.52;1758319;80;22136;-80
2022/02/15 10:38:29;;;;;;;;;;;;;;;10.05;58.71;99732.83;1759147;79;20176;-81
2022/02/15 10:40:56;;;;;;;;;;;;;;;10.16;58.51;99720.28;1763183;80;20207;-79
2022/02/15 10:43:22;;;;;;;;;;;;;;;9.98;59.01;99734.45;1765239;80;20216;-79
2022/02/15 10:45:47;;;;;;;;;;;;;;;10.18;58.63;99714.37;1761685;79;20474;-79
2022/02/15 10:48:13;;;;;;;;;;;;;;;10.20;58.30;99704.46;1762540;80;21087;-80
2022/02/15 10:50:39;;;;;;;;;;;;;;;10.14;58.36;99709.89;1750992;80;20886;-80
2022/02/15 10:53:04;;;;;;;;;;;;;;;10.11;58.42;99723.91;1760664;80;20342;-80
2022/02/15 10:55:30;;;;;;;;;;;;;;;9.66;59.33;99728.61;1769397;80;20140;-80
2022/02/15 10:57:56;;;;;;;;;;;;;;;9.45;59.72;99696.11;1764583;80;20470;-80
2022/02/15 11:00:21;;;;;;;;;;;;;;;10.01;58.87;99707.75;1755942;80;21094;-80
2022/02/15 11:02:47;;;;;;;;;;;;;;;10.11;58.73;99708.91;1755008;79;20141;-80
2022/02/15 11:05:13;;;;;;;;;;;;;;;9.93;58.73;99710.86;1777788;80;20434;-79
2022/02/15 11:07:39;;;;;;;;;;;;;;;9.95;58.87;99704.44;1746663;80;20200;-79
2022/02/15 11:10:21;;;;;;;;;;;;;;;10.30;58.68;99701.65;1760314;81;20197;-81
2022/02/15 11:12:53;;;;;;;;;;;;;;;10.39;58.11;99700.22;1747567;81;21078;-82
2022/02/15 11:15:27;;;;;;;;;;;;;;;10.61;57.87;99699.17;1745147;80;20154;-81
2022/02/15 11:17:58;;;;;;;;;;;;;;;10.46;57.47;99707.47;1753806;79;20193;-81
2022/02/15 11:20:29;;;;;;;;;;;;;;;10.58;57.54;99708.75;1756143;80;20258;-81
2022/02/15 11:22:55;;;;;;;;;;;;;;;10.72;56.98;99719.97;1722144;81;20126;-80
2022/02/15 11:25:34;;;;;;;;;;;;;;;10.92;56.79;99726.19;1763242;80;21149;-78
2022/02/15 11:28:11;;;;;;;;;;;;;;;11.00;56.74;99726.19;1757032;80;20282;-79
2022/02/15 11:30:56;;;;;;;;;;;;;;;10.75;56.72;99721.44;1758586;80;20149;-80
2022/02/15 11:33:27;;;;;;;;;;;;;;;10.90;56.20;99732.14;1763602;80;20146;-80
2022/02/15 11:35:57;;;;;;;;;;;;;;;11.11;56.05;99731.61;1753278;80;20487;-79
2022/02/15 11:38:23;;;;;;;;;;;;;;;10.91;55.99;99740.41;1758064;79;20772;-79
2022/02/15 11:40:58;;;;;;;;;;;;;;;11.04;55.95;99731.95;1762148;80;20119;-80
2022/02/15 11:43:23;;;;;;;;;;;;;;;11.12;55.66;99736.73;1761053;80;20498;-78
2022/02/15 11:45:49;;;;;;;;;;;;;;;11.07;55.72;99746.95;1759886;80;20173;-81
2022/02/15 11:48:14;;;;;;;;;;;;;;;11.31;55.45;99743.91;1753342;80;20205;-80
2022/02/15 11:50:42;;;;;;;;;;;;;;;11.42;55.09;99740.91;1762797;79;21147;-80
2022/02/15 11:53:10;;;;;;;;;;;;;;;11.21;54.51;99748.08;1755794;80;21046;-79
2022/02/15 11:55:35;;;;;;;;;;;;;;;11.37;54.64;99744.54;1760787;80;20471;-79
2022/02/15 11:58:03;;;;;;;;;;;;;;;11.33;54.80;99734.00;1761108;79;20230;-80
2022/02/15 12:00:32;;;;;;;;;;;;;;;11.40;54.58;99737.59;1754732;79;20197;-80
2022/02/15 12:02:58;;;;;;;;;;;;;;;11.19;54.67;99742.66;1761863;80;21244;-80
2022/02/15 12:05:28;;;;;;;;;;;;;;;10.96;55.36;99739.40;1759835;80;20157;-80
2022/02/15 12:07:54;;;;;;;;;;;;;;;11.02;55.09;99744.01;1763707;80;20136;-79
2022/02/15 12:10:20;;;;;;;;;;;;;;;10.82;55.52;99744.06;1769835;80;20356;-80
2022/02/15 12:12:47;;;;;;;;;;;;;;;10.83;55.28;99745.21;1766124;80;20155;-79
2022/02/15 12:15:13;;;;;;;;;;;;;;;10.88;55.28;99747.34;1770537;80;22612;-80
2022/02/15 12:17:46;;;;;;;;;;;;;;;11.18;54.85;99748.92;1757899;79;20236;-78
2022/02/15 12:20:17;;;;;;;;;;;;;;;11.15;54.72;99740.83;1767464;80;20174;-79
2022/02/15 12:22:44;;;;;;;;;;;;;;;11.31;54.61;99745.23;1765363;80;21197;-79
2022/02/15 12:25:09;;;;;;;;;;;;;;;11.13;55.23;99751.56;1773755;80;20218;-79
2022/02/15 12:27:46;;;;;;;;;;;;;;;11.18;55.45;99750.25;1767506;80;20986;-79
2022/02/15 12:30:13;;;;;;;;;;;;;;;11.05;55.42;99751.59;1764591;80;20151;-78
2022/02/15 12:32:40;;;;;;;;;;;;;;;11.17;55.48;99757.36;1753007;80;20151;-78
2022/02/15 12:35:07;;;;;;;;;;;;;;;11.22;55.70;99752.89;1766752;80;20144;-78
2022/02/15 12:37:33;;;;;;;;;;;;;;;11.28;55.53;99750.88;1765631;79;20147;-78
2022/02/15 12:39:59;;;;;;;;;;;;;;;11.04;55.93;99747.30;1767986;80;21972;-79
2022/02/15 12:42:28;;;;;;;;;;;;;;;11.12;55.86;99743.80;1773869;79;20251;-77
2022/02/15 12:44:57;;;;;;;;;;;;;;;10.95;56.47;99740.38;1771158;79;20170;-79
2022/02/15 12:47:24;;;;;;;;;;;;;;;11.17;56.31;99740.66;1766096;79;20215;-78
2022/02/15 12:49:53;;;;;;;;;;;;;;;11.34;55.79;99744.88;1767718;79;20177;-77
2022/02/15 12:52:19;;;;;;;;;;;;;;;11.16;56.28;99738.52;1766258;80;21183;-78
2022/02/15 12:54:54;;;;;;;;;;;;;;;11.34;55.86;99742.23;1768326;80;20149;-77
2022/02/15 12:57:21;;;;;;;;;;;;;;;11.30;56.03;99738.31;1762871;80;20214;-77
2022/02/15 12:59:50;;;;;;;;;;;;;;;11.42;55.74;99738.27;1771151;80;20621;-76